Orlando, Florida
Traffic Map
Current Weather Conditions
Orlando, Florida
Few Clouds
Few Clouds
83°
Feels Like: 85°
Wind Chill: 83° Ceiling: Unl
Heat Index: 85° Visibility: 10mi
Dew Point: 66° Wind: 5mph
Humidity: 56% Direction: 310° (NW)
Pressure: 29.92in Gusts: 0mph
Raw Report DataKORL 301753Z 31004KT 10SM FEW049 28/19 A2992 RMK AO2 SLP133 T02830189 10283 20206 58025
Traffic Incident Summary
Active as of:
Severity:
Category:
InformationThere was an issue retrieving the traffic information for this location. Please try a different location or try again shortly.
Advertisements
Track Severe Weather on mobile